createdAt,value
2022-12-28T00:31:56.418Z,3.09
2022-12-28T00:32:56.409Z,3.05
2022-12-28T00:33:56.412Z,3.07
2022-12-28T00:34:56.450Z,3.05
2022-12-28T00:35:56.491Z,3.07
2022-12-28T00:37:09.269Z,3.12
2022-12-28T00:37:56.576Z,3.10
2022-12-28T00:38:57.272Z,3.15
2022-12-28T00:39:56.677Z,3.18
2022-12-28T00:40:57.460Z,3.21
2022-12-28T00:41:56.734Z,3.18
2022-12-28T00:42:56.765Z,3.23
2022-12-28T00:43:56.802Z,3.27
2022-12-28T00:44:57.763Z,3.31
2022-12-28T00:45:56.944Z,3.39
2022-12-28T00:46:56.971Z,3.39
2022-12-28T00:47:56.975Z,3.36
2022-12-28T00:48:57.011Z,3.28
2022-12-28T00:49:57.046Z,3.25
2022-12-28T00:50:57.083Z,3.33
2022-12-28T00:51:57.144Z,3.40
2022-12-28T00:52:57.159Z,3.42
2022-12-28T00:53:57.217Z,3.36
2022-12-28T00:54:57.264Z,3.43
2022-12-28T00:55:57.295Z,3.36
2022-12-28T00:56:57.354Z,3.39
2022-12-28T00:57:57.423Z,3.34
2022-12-28T00:58:57.417Z,3.39
2022-12-28T00:59:57.451Z,3.33
2022-12-28T01:00:57.581Z,3.33
2022-12-28T01:01:57.708Z,3.40
2022-12-28T01:02:57.641Z,3.43
2022-12-28T01:03:58.263Z,3.36
2022-12-28T01:04:57.656Z,3.44
2022-12-28T01:05:58.274Z,3.49
2022-12-28T01:06:57.734Z,3.49
2022-12-28T01:07:57.818Z,3.54
2022-12-28T01:08:57.815Z,3.40
2022-12-28T01:09:57.879Z,3.39
2022-12-28T01:10:58.766Z,3.39
2022-12-28T01:11:57.933Z,3.39
2022-12-28T01:12:57.975Z,3.53
2022-12-28T01:13:58.021Z,3.43
2022-12-28T01:14:58.077Z,3.39
2022-12-28T01:15:58.106Z,3.44
2022-12-28T01:16:58.261Z,3.46
2022-12-28T01:17:58.173Z,3.42
2022-12-28T01:18:58.229Z,3.53
2022-12-28T01:19:58.255Z,3.49
2022-12-28T01:20:58.298Z,3.52
2022-12-28T01:21:58.360Z,3.52
2022-12-28T01:22:59.270Z,3.43
2022-12-28T01:23:58.434Z,3.49
2022-12-28T01:24:58.463Z,3.54
2022-12-28T01:26:00.456Z,3.52
2022-12-28T01:26:58.587Z,3.49
2022-12-28T01:27:59.271Z,3.57
2022-12-28T01:28:58.650Z,3.52
2022-12-28T01:29:59.467Z,3.47
2022-12-28T01:30:58.724Z,3.50
2022-12-28T01:31:58.861Z,3.49
2022-12-28T01:32:58.805Z,3.33
2022-12-28T01:33:58.836Z,3.34
2022-12-28T01:34:58.890Z,3.52
2022-12-28T01:35:58.915Z,3.61
2022-12-28T01:36:58.945Z,3.60
2022-12-28T01:37:59.006Z,3.54
2022-12-28T01:38:59.051Z,3.49
2022-12-28T01:39:59.106Z,3.47
2022-12-28T01:40:59.775Z,3.57
2022-12-28T01:41:59.765Z,3.54
2022-12-28T01:42:59.770Z,3.54
2022-12-28T01:43:59.241Z,3.50
2022-12-28T01:44:59.311Z,3.47
2022-12-28T01:45:59.410Z,3.54
2022-12-28T01:46:59.388Z,3.47
2022-12-28T01:47:59.400Z,3.54
2022-12-28T01:48:59.441Z,3.53
2022-12-28T01:49:59.517Z,3.52
2022-12-28T01:50:59.519Z,3.53
2022-12-28T01:51:59.573Z,3.64
2022-12-28T01:52:59.613Z,3.65
2022-12-28T01:53:59.690Z,3.72
2022-12-28T01:54:59.690Z,3.54
2022-12-28T01:55:59.729Z,3.60
2022-12-28T01:56:59.768Z,3.64
2022-12-28T01:57:59.831Z,3.67
2022-12-28T01:58:59.859Z,3.71
2022-12-28T02:00:00.778Z,3.68
2022-12-28T02:01:00.924Z,3.72
2022-12-28T02:02:00.188Z,3.60
2022-12-28T02:03:00.106Z,3.58
2022-12-28T02:04:00.088Z,3.67
2022-12-28T02:05:00.135Z,3.67
2022-12-28T02:06:00.146Z,3.64
2022-12-28T02:07:00.175Z,3.64
2022-12-28T02:08:00.224Z,3.70
2022-12-28T02:09:00.787Z,3.65
2022-12-28T02:10:42.371Z,3.62
2022-12-28T02:11:00.339Z,3.62
2022-12-28T02:12:00.406Z,3.71
2022-12-28T02:13:00.506Z,3.78
2022-12-28T02:14:01.291Z,3.72
2022-12-28T02:15:00.521Z,3.78
2022-12-28T02:16:01.304Z,3.76
2022-12-28T02:17:00.665Z,3.82
2022-12-28T02:18:00.642Z,3.83
2022-12-28T02:19:00.691Z,3.86
2022-12-28T02:20:00.718Z,3.94
2022-12-28T02:21:00.781Z,3.94
2022-12-28T02:22:00.795Z,3.94
2022-12-28T02:23:01.777Z,3.94
2022-12-28T02:24:01.773Z,3.97
2022-12-28T02:25:13.027Z,3.89
2022-12-28T02:26:00.982Z,3.90
2022-12-28T02:27:00.999Z,3.96
2022-12-28T02:28:01.043Z,3.96
2022-12-28T02:29:01.077Z,4.00
2022-12-28T02:30:01.111Z,4.04
2022-12-28T02:31:01.237Z,4.15
2022-12-28T02:32:01.203Z,4.08
2022-12-28T02:33:01.251Z,4.14
2022-12-28T02:34:01.322Z,4.15
2022-12-28T02:35:01.331Z,4.14
2022-12-28T02:36:02.280Z,4.10
2022-12-28T02:37:01.401Z,4.12
2022-12-28T02:38:01.447Z,4.01
2022-12-28T02:39:01.517Z,4.03
2022-12-28T02:40:01.528Z,4.07
2022-12-28T02:41:01.593Z,4.07
2022-12-28T02:42:02.265Z,4.07
2022-12-28T02:43:02.277Z,4.12
2022-12-28T02:44:01.734Z,4.15
2022-12-28T02:45:01.792Z,4.10
2022-12-28T02:46:02.831Z,4.08
2022-12-28T02:47:01.843Z,4.01
2022-12-28T02:48:01.868Z,4.14
2022-12-28T02:49:01.909Z,4.15
2022-12-28T02:50:02.014Z,3.98
2022-12-28T02:51:01.983Z,4.15
2022-12-28T02:52:02.059Z,4.07
2022-12-28T02:53:02.068Z,4.15
2022-12-28T03:59:00.618Z,4.34
2022-12-28T04:00:00.622Z,4.28
2022-12-28T04:01:01.410Z,4.29
2022-12-28T04:02:00.865Z,4.33
2022-12-28T04:03:00.847Z,4.29
2022-12-28T04:04:00.813Z,4.28
2022-12-28T04:05:00.835Z,4.32
2022-12-28T04:06:00.858Z,4.34
2022-12-28T04:07:00.894Z,4.36
2022-12-28T04:08:00.968Z,4.34
2022-12-28T04:09:00.976Z,4.26
2022-12-28T04:10:01.016Z,4.32
2022-12-28T04:11:01.070Z,4.36
2022-12-28T04:12:01.120Z,4.36
2022-12-28T04:13:01.848Z,4.36
2022-12-28T04:14:04.276Z,4.34
2022-12-28T04:15:01.226Z,4.43
2022-12-28T04:16:01.917Z,4.37
2022-12-28T04:17:01.888Z,4.37
2022-12-28T04:18:01.338Z,4.37
2022-12-28T04:19:01.432Z,4.42
2022-12-28T04:20:02.362Z,4.46
2022-12-28T04:21:02.358Z,4.44
2022-12-28T04:22:01.520Z,4.39
2022-12-28T04:23:02.359Z,4.39
2022-12-28T04:24:01.615Z,4.42
2022-12-28T04:25:01.638Z,4.34
2022-12-28T04:26:01.699Z,4.26
2022-12-28T04:27:01.713Z,4.32
2022-12-28T04:28:02.363Z,4.28
2022-12-28T04:29:02.365Z,4.24
2022-12-28T04:30:01.843Z,4.24
2022-12-28T04:31:01.966Z,4.19
2022-12-28T04:32:01.925Z,4.19
2022-12-28T04:33:02.860Z,4.14
2022-12-28T04:34:02.029Z,4.22
2022-12-28T04:35:02.596Z,4.19
2022-12-28T04:36:02.105Z,4.21
2022-12-28T04:37:02.130Z,4.08
2022-12-28T04:38:02.861Z,4.08
2022-12-28T04:39:02.860Z,4.08
2022-12-28T04:40:02.291Z,4.06
2022-12-28T04:41:02.873Z,4.00
2022-12-28T04:42:02.327Z,4.04
2022-12-28T04:43:02.380Z,3.97
2022-12-28T04:44:03.372Z,4.06
2022-12-28T04:45:02.477Z,3.97
2022-12-28T04:46:02.512Z,4.00
2022-12-28T04:47:03.362Z,3.89
2022-12-28T04:48:03.364Z,4.03
2022-12-28T04:49:03.371Z,3.85
2022-12-28T04:50:02.700Z,4.00
2022-12-28T04:51:03.354Z,3.96
2022-12-28T04:52:02.777Z,3.98
2022-12-28T04:53:02.826Z,3.97
2022-12-28T04:54:02.831Z,4.01
2022-12-28T04:55:02.906Z,4.14
2022-12-28T04:56:02.913Z,4.18
2022-12-28T04:57:02.987Z,4.07
2022-12-28T04:58:03.003Z,4.15
2022-12-28T04:59:03.067Z,4.14
2022-12-28T05:00:03.082Z,4.06
2022-12-28T05:01:03.963Z,4.07
2022-12-28T05:02:03.313Z,4.06
2022-12-28T05:03:03.923Z,4.04
2022-12-28T05:04:03.262Z,4.01
2022-12-28T05:05:03.289Z,3.96
2022-12-28T05:06:03.314Z,3.96
2022-12-28T05:07:03.855Z,4.00
2022-12-28T05:08:03.418Z,3.90
2022-12-28T05:09:03.476Z,4.04
2022-12-28T05:10:04.365Z,3.98
2022-12-28T05:11:03.523Z,4.01
2022-12-28T05:12:03.607Z,3.97
2022-12-28T05:13:03.607Z,4.00
2022-12-28T05:14:03.660Z,4.00
2022-12-28T05:15:03.685Z,4.01
2022-12-28T05:16:03.803Z,4.10
2022-12-28T05:17:03.809Z,4.01
2022-12-28T05:18:04.372Z,4.06
2022-12-28T05:19:03.862Z,4.04
2022-12-28T05:20:04.861Z,4.06
2022-12-28T05:21:04.867Z,4.10
2022-12-28T05:22:04.001Z,4.08
2022-12-28T05:23:04.016Z,4.07
2022-12-28T05:24:04.863Z,4.03
2022-12-28T05:25:05.600Z,4.00
2022-12-28T05:26:04.224Z,4.06
2022-12-28T05:27:04.236Z,4.06
2022-12-28T05:28:04.243Z,4.04
2022-12-28T05:29:04.270Z,4.01
2022-12-28T05:30:04.871Z,4.00
2022-12-28T05:31:04.440Z,3.94
2022-12-28T05:32:04.422Z,4.03
2022-12-28T05:33:05.359Z,4.00
2022-12-28T05:34:04.511Z,3.90
2022-12-28T05:35:05.365Z,4.00
2022-12-28T05:36:05.369Z,3.90
2022-12-28T05:37:05.354Z,3.96
2022-12-28T05:38:04.625Z,3.90
2022-12-28T05:39:04.709Z,3.97
2022-12-28T05:40:05.381Z,4.07
2022-12-28T05:41:05.356Z,3.96
2022-12-28T05:42:04.799Z,3.94
2022-12-28T05:43:06.550Z,3.97
2022-12-28T05:44:04.902Z,3.98
2022-12-28T05:45:05.858Z,4.04
2022-12-28T05:46:04.968Z,4.01
2022-12-28T05:47:05.913Z,3.97
2022-12-28T05:48:05.051Z,3.94
2022-12-28T05:49:05.112Z,3.98
2022-12-28T05:50:05.863Z,3.97
2022-12-28T05:51:05.164Z,3.92
2022-12-28T05:52:05.227Z,3.97
2022-12-28T05:53:05.859Z,3.96
2022-12-28T05:54:05.292Z,3.98
2022-12-28T05:55:05.322Z,3.90
2022-12-28T05:56:10.701Z,3.90
2022-12-28T05:57:05.444Z,4.00
2022-12-28T05:58:05.452Z,3.96
2022-12-28T05:59:05.485Z,4.01
2022-12-28T06:00:05.574Z,4.03
2022-12-28T06:01:05.624Z,3.97
2022-12-28T06:02:06.495Z,3.96
2022-12-28T06:03:06.434Z,4.01
2022-12-28T06:04:06.358Z,3.97
2022-12-28T06:05:05.758Z,3.98
2022-12-28T06:06:06.358Z,3.89
2022-12-28T06:07:06.380Z,4.07
2022-12-28T06:08:06.357Z,3.94
2022-12-28T06:09:05.956Z,3.98
2022-12-28T06:10:05.957Z,3.94
2022-12-28T06:11:05.991Z,3.98
2022-12-28T06:12:06.069Z,4.00
2022-12-28T06:13:06.086Z,3.98
2022-12-28T06:14:06.157Z,4.01
2022-12-28T06:15:06.145Z,4.03
2022-12-28T06:16:06.222Z,3.97
2022-12-28T06:17:06.256Z,4.00
2022-12-28T06:18:06.269Z,3.96
2022-12-28T06:19:06.868Z,3.98
2022-12-28T06:20:06.353Z,4.00
2022-12-28T06:21:06.395Z,4.00
2022-12-28T06:22:06.448Z,3.86
2022-12-28T06:23:07.361Z,3.94
2022-12-28T06:24:06.533Z,3.90
2022-12-28T06:25:07.371Z,3.89
2022-12-28T06:26:06.592Z,3.90
2022-12-28T06:27:06.643Z,3.90
2022-12-28T06:28:06.710Z,3.94
2022-12-28T06:29:07.365Z,3.85
2022-12-28T06:30:06.760Z,3.96
2022-12-28T06:31:06.796Z,3.85
2022-12-28T06:32:06.877Z,3.94
2022-12-28T06:33:06.916Z,3.83
2022-12-28T06:34:07.879Z,3.83
2022-12-28T06:35:06.967Z,3.90
2022-12-28T06:36:07.006Z,3.83
2022-12-28T06:37:07.043Z,3.88
2022-12-28T06:38:07.110Z,3.83
2022-12-28T06:39:07.145Z,3.82
2022-12-28T06:40:07.205Z,3.96
2022-12-28T06:41:15.055Z,3.97
2022-12-28T06:42:07.243Z,3.86
2022-12-28T06:43:07.292Z,3.90
2022-12-28T06:44:07.340Z,4.03
2022-12-28T06:45:08.361Z,4.01
2022-12-28T06:46:07.493Z,4.00
2022-12-28T06:47:07.454Z,4.03
2022-12-28T06:48:07.493Z,3.94
2022-12-28T06:49:07.531Z,3.94
2022-12-28T06:50:07.578Z,3.90
2022-12-28T06:51:07.636Z,3.90
2022-12-28T06:52:07.674Z,3.89
2022-12-28T06:53:08.369Z,3.92
2022-12-28T06:54:08.358Z,3.94
2022-12-28T06:55:07.779Z,3.92
2022-12-28T06:56:07.841Z,3.86
2022-12-28T06:57:08.368Z,3.94
2022-12-28T06:58:07.933Z,3.97
2022-12-28T06:59:07.937Z,3.97
2022-12-28T07:00:07.992Z,3.88
2022-12-28T07:01:08.238Z,3.96
2022-12-28T07:02:08.229Z,3.92
2022-12-28T07:03:08.119Z,3.85
2022-12-28T07:04:08.169Z,3.80
2022-12-28T07:05:08.888Z,3.82
2022-12-28T07:06:08.221Z,3.80
2022-12-28T07:07:08.293Z,3.78
2022-12-28T07:08:12.488Z,3.86
2022-12-28T07:09:08.881Z,3.83
2022-12-28T07:10:08.380Z,3.79
2022-12-28T07:11:08.453Z,3.85
2022-12-28T07:12:09.363Z,3.89
2022-12-28T07:13:08.512Z,3.85
2022-12-28T07:14:08.556Z,3.80
2022-12-28T07:15:08.593Z,3.86
2022-12-28T07:16:08.703Z,3.96
2022-12-28T07:17:08.690Z,4.01
2022-12-28T07:18:08.706Z,3.88
2022-12-28T07:19:08.752Z,3.92
2022-12-28T07:20:08.795Z,4.06
2022-12-28T07:21:08.865Z,4.08
2022-12-28T07:22:08.901Z,4.08
2022-12-28T07:23:08.915Z,4.14
2022-12-28T07:24:08.974Z,4.24
2022-12-28T07:25:19.408Z,4.18
2022-12-28T07:26:09.075Z,4.14
2022-12-28T07:27:09.091Z,4.26
2022-12-28T07:28:09.126Z,4.22
2022-12-28T07:29:09.163Z,4.18
2022-12-28T07:30:09.899Z,4.24
2022-12-28T07:31:09.298Z,4.18
2022-12-28T07:32:09.284Z,4.22
2022-12-28T07:43:09.062Z,4.61
2022-12-28T07:43:52.634Z,4.61
2022-12-28T07:44:52.653Z,4.57
2022-12-28T07:45:52.734Z,4.65
2022-12-28T07:46:52.739Z,4.65
2022-12-28T07:47:52.775Z,4.62
2022-12-28T07:48:52.846Z,4.69
2022-12-28T07:49:52.852Z,4.61
2022-12-28T07:50:53.512Z,4.67
2022-12-28T07:51:52.953Z,4.69
2022-12-28T07:52:52.974Z,4.67
2022-12-28T07:53:54.004Z,4.64
2022-12-28T07:54:53.059Z,4.64
2022-12-28T07:55:53.088Z,4.69
2022-12-28T07:56:53.159Z,4.73
2022-12-28T07:57:53.176Z,4.72
2022-12-28T07:58:53.236Z,4.80
2022-12-28T07:59:53.264Z,4.77
2022-12-28T08:00:53.343Z,4.80
2022-12-28T08:01:53.483Z,4.88
2022-12-28T08:02:53.387Z,4.88
2022-12-28T08:03:53.470Z,4.89
2022-12-28T08:04:53.506Z,4.89
2022-12-28T08:05:53.518Z,4.92
2022-12-28T08:06:53.574Z,4.95
2022-12-28T08:07:58.419Z,4.99
2022-12-28T08:08:53.638Z,4.96
2022-12-28T08:09:53.691Z,5.01
2022-12-28T08:10:53.736Z,4.98
2022-12-28T08:11:53.781Z,4.95
2022-12-28T08:12:53.792Z,5.01
2022-12-28T08:13:55.527Z,5.05
2022-12-28T08:14:53.892Z,5.02
2022-12-28T08:15:54.009Z,4.98
2022-12-28T08:16:53.969Z,5.05
2022-12-28T08:17:54.010Z,5.12
2022-12-28T08:18:54.057Z,5.22
2022-12-28T08:19:54.097Z,5.25
2022-12-28T08:20:54.148Z,5.32
2022-12-28T08:21:54.201Z,5.41
2022-12-28T08:22:54.222Z,5.50
2022-12-28T08:23:54.265Z,5.52
2022-12-28T08:24:54.333Z,5.48
2022-12-28T08:25:54.336Z,5.56
2022-12-28T08:26:54.412Z,5.53
2022-12-28T08:27:54.436Z,5.49
2022-12-28T08:28:54.481Z,5.55
2022-12-28T08:29:54.552Z,5.57
2022-12-28T08:35:22.388Z,6.11
2022-12-28T08:36:22.386Z,6.21
2022-12-28T08:37:22.430Z,6.29
2022-12-28T08:38:22.481Z,6.32
2022-12-28T08:39:22.548Z,6.47
2022-12-28T08:40:22.576Z,6.46
2022-12-28T08:41:22.599Z,6.38
2022-12-28T08:42:22.652Z,6.40
2022-12-28T08:43:22.701Z,6.38
2022-12-28T08:44:22.767Z,6.43
2022-12-28T08:45:22.778Z,6.54
2022-12-28T08:46:22.926Z,6.61
2022-12-28T08:47:22.873Z,6.58
2022-12-28T08:48:22.904Z,6.68
2022-12-28T08:49:22.979Z,6.68
2022-12-28T08:50:29.544Z,6.76
2022-12-28T08:51:23.033Z,6.79
2022-12-28T08:52:23.118Z,6.69
2022-12-28T08:53:23.116Z,6.73
2022-12-28T08:54:23.177Z,6.71
2022-12-28T08:55:23.206Z,6.63
2022-12-28T08:56:23.270Z,6.71
2022-12-28T08:57:23.321Z,6.62
2022-12-28T08:58:23.332Z,6.66
2022-12-28T08:59:23.388Z,6.72
2022-12-28T09:00:23.506Z,6.65
2022-12-28T09:01:23.565Z,6.71
2022-12-28T09:02:23.687Z,6.83
2022-12-28T09:03:23.611Z,6.77
2022-12-28T09:04:23.618Z,6.79
2022-12-28T09:05:23.659Z,6.90
2022-12-28T09:06:23.701Z,6.97
2022-12-28T09:07:23.736Z,6.90
2022-12-28T09:08:23.782Z,6.90
2022-12-28T09:09:23.879Z,6.95
2022-12-28T09:10:23.872Z,6.95
2022-12-28T09:11:24.631Z,6.99
2022-12-28T09:16:40.958Z,6.73
2022-12-28T09:17:13.975Z,6.69
2022-12-28T09:18:13.996Z,6.72
2022-12-28T09:19:14.049Z,6.72
2022-12-28T09:20:14.165Z,6.76
2022-12-28T09:21:14.152Z,6.80
2022-12-28T09:22:14.213Z,6.80
2022-12-28T09:23:14.213Z,6.76
2022-12-28T09:24:14.244Z,6.76
2022-12-28T09:25:14.312Z,6.73
2022-12-28T09:26:14.340Z,6.63
2022-12-28T09:27:14.886Z,6.65
2022-12-28T09:28:14.439Z,6.63
2022-12-28T09:29:14.467Z,6.53
2022-12-28T09:30:14.535Z,6.62
2022-12-28T09:32:42.439Z,6.66
2022-12-28T09:33:10.238Z,6.68
2022-12-28T09:34:14.002Z,6.72
2022-12-28T09:34:43.294Z,6.76
2022-12-28T09:35:43.357Z,6.72
2022-12-28T09:36:43.611Z,6.71
2022-12-28T11:52:21.008Z,9.02
2022-12-28T11:52:53.956Z,9.02
2022-12-28T11:53:54.022Z,8.90
2022-12-28T11:54:54.046Z,9.02
2022-12-28T11:55:54.789Z,9.10
2022-12-28T11:56:54.826Z,9.09
2022-12-28T11:57:54.209Z,9.10
2022-12-28T11:58:54.256Z,9.05
2022-12-28T11:59:54.262Z,8.99
2022-12-28T12:00:54.334Z,8.97
2022-12-28T12:01:54.442Z,9.01
2022-12-28T12:02:54.612Z,9.04
2022-12-28T12:03:56.307Z,9.20
2022-12-28T12:04:54.505Z,9.13
2022-12-28T12:05:54.546Z,9.25
2022-12-28T12:06:54.587Z,9.18
2022-12-28T12:07:54.696Z,9.15
2022-12-28T12:08:55.302Z,9.21
2022-12-28T12:09:54.766Z,9.25
2022-12-28T12:10:54.780Z,9.28
2022-12-28T12:11:54.826Z,9.16
2022-12-28T12:12:54.864Z,9.13
2022-12-28T12:13:54.910Z,9.09
2022-12-28T12:14:55.036Z,9.09
2022-12-28T12:15:55.054Z,9.12
2022-12-28T12:16:55.108Z,9.09
2022-12-28T12:17:55.084Z,9.13
2022-12-28T12:18:55.158Z,9.24
2022-12-28T12:19:55.298Z,9.23
2022-12-28T12:20:55.813Z,9.21
2022-12-28T12:21:55.349Z,9.34
2022-12-28T12:22:55.314Z,9.31
2022-12-28T12:23:55.395Z,9.38
2022-12-28T12:24:55.407Z,9.40
2022-12-28T12:25:55.451Z,9.48
2022-12-28T12:26:55.534Z,9.38
2022-12-28T12:27:55.541Z,9.45
2022-12-28T12:28:55.580Z,9.49
2022-12-28T12:29:55.659Z,9.53
2022-12-28T12:30:55.697Z,9.56
2022-12-28T12:31:55.755Z,9.63
2022-12-28T12:32:56.326Z,9.66
2022-12-28T12:33:55.823Z,9.57
2022-12-28T12:34:55.880Z,9.53
2022-12-28T12:35:55.900Z,9.49
2022-12-28T12:36:56.033Z,9.46
2022-12-28T12:37:56.004Z,9.46
2022-12-28T12:38:56.828Z,9.49
2022-12-28T12:39:56.111Z,9.50
2022-12-28T12:40:56.143Z,9.53
2022-12-28T12:41:56.180Z,9.57
2022-12-28T12:42:56.221Z,9.71
2022-12-28T12:43:56.286Z,9.64
2022-12-28T12:44:56.325Z,9.66
2022-12-28T12:45:56.490Z,9.60
2022-12-28T12:46:59.284Z,9.57
2022-12-28T12:47:56.456Z,9.66
2022-12-28T12:48:56.582Z,9.60
2022-12-28T12:49:56.550Z,9.71
2022-12-28T12:50:56.620Z,9.67
2022-12-28T12:51:56.641Z,9.67
2022-12-28T12:52:56.681Z,9.68
2022-12-28T12:53:56.759Z,9.68
2022-12-28T12:54:56.772Z,9.57
2022-12-28T12:55:56.815Z,9.48
2022-12-28T12:56:56.889Z,9.49
2022-12-28T12:57:56.909Z,9.56
2022-12-28T12:58:56.951Z,9.58
2022-12-28T12:59:57.001Z,9.61
2022-12-28T13:00:57.101Z,9.57
2022-12-28T13:01:57.227Z,9.63
2022-12-28T13:02:57.174Z,9.66
2022-12-28T13:03:57.194Z,9.58
2022-12-28T13:04:57.243Z,9.61
2022-12-28T13:05:57.282Z,9.48
2022-12-28T13:06:57.361Z,9.46
2022-12-28T13:07:58.313Z,9.48
2022-12-28T13:09:03.294Z,9.50
2022-12-28T13:09:57.451Z,9.56
2022-12-28T13:10:57.516Z,9.50
2022-12-28T13:11:57.576Z,9.49
2022-12-28T13:12:57.610Z,9.63
2022-12-28T13:13:57.643Z,9.49
2022-12-28T13:14:57.689Z,9.52
2022-12-28T13:15:57.750Z,9.52
2022-12-28T13:16:57.795Z,9.60
2022-12-28T13:18:11.370Z,9.57
2022-12-28T13:18:58.820Z,9.63
2022-12-28T13:19:57.914Z,9.68
2022-12-28T13:20:57.955Z,9.61
2022-12-28T13:21:58.031Z,9.70
2022-12-28T13:22:58.043Z,9.70
2022-12-28T13:23:58.093Z,9.79
2022-12-28T13:24:58.139Z,9.73
2022-12-28T13:25:58.189Z,9.76
2022-12-28T13:26:58.268Z,9.76
2022-12-28T13:27:58.278Z,9.78
2022-12-28T13:28:58.350Z,9.71
2022-12-28T13:29:58.401Z,9.68
2022-12-28T13:30:58.499Z,9.67
2022-12-28T13:31:58.505Z,9.68
2022-12-28T13:32:58.505Z,9.70
2022-12-28T13:33:58.570Z,9.73
2022-12-28T13:34:58.591Z,9.56
2022-12-28T13:36:01.421Z,9.50
2022-12-28T13:36:58.692Z,9.46
2022-12-28T13:37:58.755Z,9.48
2022-12-28T13:38:58.773Z,9.60
2022-12-28T13:39:58.849Z,9.58
2022-12-28T13:40:58.872Z,9.61
2022-12-28T13:41:58.951Z,9.53
2022-12-28T13:50:44.834Z,9.38
2022-12-28T13:51:49.766Z,9.38
2022-12-28T13:52:44.909Z,9.43
2022-12-28T13:53:44.955Z,9.40
2022-12-28T13:54:44.999Z,9.43
2022-12-28T13:55:45.059Z,9.32
2022-12-28T13:56:45.081Z,9.35
2022-12-28T13:57:47.587Z,9.48
2022-12-28T13:58:45.175Z,9.48
2022-12-28T13:59:45.223Z,9.53
2022-12-28T14:00:45.317Z,9.48
2022-12-28T14:01:45.359Z,9.49
2022-12-28T14:02:45.353Z,9.50
2022-12-28T14:03:46.461Z,9.50
2022-12-28T14:04:53.590Z,9.46
2022-12-28T14:05:45.558Z,9.34
2022-12-28T14:06:45.552Z,9.42
2022-12-28T14:07:45.571Z,9.35
2022-12-28T14:08:45.659Z,9.34
2022-12-28T14:09:45.671Z,9.27
2022-12-28T14:10:45.728Z,9.34
2022-12-28T14:11:45.767Z,9.23
2022-12-28T14:15:34.554Z,9.13
2022-12-28T14:16:31.828Z,9.13
2022-12-28T14:17:32.773Z,9.16
2022-12-28T14:18:31.192Z,9.09
2022-12-28T14:21:26.557Z,8.93
2022-12-28T14:22:27.432Z,8.87
2022-12-28T14:23:26.617Z,8.83
2022-12-28T14:24:26.669Z,8.65
2022-12-28T14:25:26.728Z,8.57
2022-12-28T14:26:27.495Z,8.62
2022-12-28T14:27:35.042Z,8.65
2022-12-28T14:28:26.976Z,8.65
2022-12-28T14:29:31.513Z,8.62
2022-12-28T14:30:55.465Z,8.68
2022-12-28T14:31:27.132Z,8.69
2022-12-28T14:34:41.151Z,8.83
2022-12-28T14:35:09.384Z,8.65
2022-12-28T14:36:09.570Z,8.65
2022-12-28T14:37:30.470Z,8.66
2022-12-28T14:38:09.540Z,8.50
2022-12-28T14:39:09.545Z,8.58
2022-12-28T14:40:09.565Z,8.51
2022-12-28T14:41:09.614Z,8.39
2022-12-28T15:05:01.466Z,8.28
2022-12-28T15:06:02.091Z,8.21
2022-12-28T15:07:01.505Z,8.26
2022-12-28T15:08:01.573Z,8.30
2022-12-28T15:09:01.586Z,8.36
2022-12-28T15:10:02.594Z,8.40
2022-12-28T15:11:01.701Z,8.44
2022-12-28T15:12:03.493Z,8.40
2022-12-28T15:13:01.757Z,8.37
2022-12-28T15:14:02.579Z,8.29
2022-12-28T15:15:01.856Z,8.32
2022-12-28T15:16:01.954Z,8.28
2022-12-28T15:17:02.620Z,8.29
2022-12-28T15:18:01.978Z,8.20
2022-12-28T15:19:02.052Z,8.20
2022-12-28T15:20:10.115Z,8.21
2022-12-28T15:21:02.607Z,8.25
2022-12-28T15:22:03.113Z,8.25
2022-12-28T15:23:03.106Z,8.17
2022-12-28T15:24:02.267Z,8.15
2022-12-28T15:25:03.111Z,8.12
2022-12-28T15:26:02.319Z,8.04
2022-12-28T15:27:02.393Z,8.11
2022-12-28T15:28:02.421Z,8.11
2022-12-28T15:29:02.487Z,7.99
2022-12-28T15:30:06.568Z,7.90
2022-12-28T15:31:03.144Z,7.93
2022-12-28T15:32:03.154Z,7.92
2022-12-28T15:33:02.672Z,7.89
2022-12-28T15:34:03.608Z,7.93
2022-12-28T15:35:03.634Z,7.77
2022-12-28T15:36:02.775Z,7.71
2022-12-28T15:37:02.833Z,7.78
2022-12-28T15:38:02.845Z,7.71
2022-12-28T15:39:02.891Z,7.71
2022-12-28T15:40:03.017Z,7.84
2022-12-28T15:41:03.626Z,7.82
2022-12-28T15:42:03.107Z,7.78
2022-12-28T15:43:03.106Z,7.75
2022-12-28T15:44:03.121Z,7.71
2022-12-28T15:45:03.179Z,7.74
2022-12-28T15:46:04.369Z,7.60
2022-12-28T15:47:03.873Z,7.66
2022-12-28T15:48:03.391Z,7.60
2022-12-28T15:49:03.341Z,7.63
2022-12-28T15:50:04.116Z,7.50
2022-12-28T15:51:04.118Z,7.47
2022-12-28T15:52:03.463Z,7.52
2022-12-28T15:53:03.554Z,7.49
2022-12-28T15:54:03.549Z,7.41
2022-12-28T15:55:03.624Z,7.40
2022-12-28T15:56:04.619Z,7.34
2022-12-28T15:57:04.626Z,7.26
2022-12-28T15:58:03.734Z,7.24
2022-12-28T15:59:03.781Z,7.22
2022-12-28T16:00:03.853Z,7.27
2022-12-28T16:01:03.981Z,7.26
2022-12-28T16:02:04.059Z,7.32
2022-12-28T16:03:04.148Z,7.29
2022-12-28T16:04:04.015Z,7.29
2022-12-28T16:05:04.078Z,7.26
2022-12-28T16:06:04.633Z,7.38
2022-12-28T16:07:04.135Z,7.29
2022-12-28T16:08:05.132Z,7.29
2022-12-28T16:09:05.114Z,7.31
2022-12-28T16:10:04.364Z,7.23
2022-12-28T16:11:05.117Z,7.19
2022-12-28T16:12:05.113Z,7.16
2022-12-28T16:13:05.122Z,7.23
2022-12-28T16:14:05.117Z,7.31
2022-12-28T16:15:04.492Z,7.24
2022-12-28T16:16:04.629Z,7.24
2022-12-28T16:17:04.589Z,7.29
2022-12-28T16:18:04.618Z,7.20
2022-12-28T16:19:04.749Z,7.19
2022-12-28T16:20:05.613Z,7.16
2022-12-28T16:21:05.622Z,7.08
2022-12-28T16:22:04.836Z,7.01
2022-12-28T16:23:04.823Z,7.09
2022-12-28T16:24:05.669Z,7.13
2022-12-28T16:25:04.945Z,7.16
2022-12-28T16:26:05.022Z,7.13
2022-12-28T16:27:05.631Z,7.17
2022-12-28T16:28:05.037Z,7.13
2022-12-28T16:29:05.680Z,7.12
2022-12-28T16:30:05.183Z,7.09
2022-12-28T16:31:06.122Z,7.09
2022-12-28T16:32:05.366Z,7.02
2022-12-28T16:33:05.250Z,7.04
2022-12-28T16:34:05.367Z,7.12
2022-12-28T16:35:06.127Z,7.15
2022-12-28T16:36:06.131Z,7.15
2022-12-28T16:37:05.458Z,7.20
2022-12-28T16:38:06.128Z,7.26
2022-12-28T16:39:05.537Z,7.26
2022-12-28T16:40:06.122Z,7.20
2022-12-28T16:41:05.596Z,7.20
2022-12-28T16:42:05.641Z,7.20
2022-12-28T16:43:06.660Z,7.29
2022-12-28T16:44:05.758Z,7.20
2022-12-28T16:45:05.767Z,7.20
2022-12-28T16:46:05.940Z,7.27
2022-12-28T16:47:05.874Z,7.15
2022-12-28T16:48:05.909Z,7.13
2022-12-28T16:49:06.639Z,7.09
2022-12-28T16:50:06.012Z,7.02
2022-12-28T16:51:06.034Z,7.07
2022-12-28T16:52:06.121Z,7.15
2022-12-28T16:53:06.162Z,7.15
2022-12-28T16:54:07.140Z,7.17
2022-12-28T16:55:07.137Z,7.12
2022-12-28T16:56:06.269Z,7.16
2022-12-28T16:57:06.307Z,7.13
2022-12-28T16:58:06.360Z,7.24
2022-12-28T16:59:06.426Z,7.20
2022-12-28T17:00:07.131Z,7.16
2022-12-28T17:01:07.381Z,7.16
2022-12-28T17:02:06.592Z,7.08
2022-12-28T17:03:06.630Z,7.17
2022-12-28T17:04:06.669Z,7.05
2022-12-28T17:05:06.653Z,7.13
2022-12-28T17:06:06.696Z,7.12
2022-12-28T17:07:06.728Z,7.15
2022-12-28T17:08:06.763Z,7.16
2022-12-28T17:09:06.845Z,7.29
2022-12-28T17:10:07.640Z,7.17
2022-12-28T17:11:07.630Z,7.19
2022-12-28T17:12:06.946Z,7.19
2022-12-28T17:13:07.017Z,7.20
2022-12-28T17:14:07.052Z,7.23
2022-12-28T17:15:07.633Z,7.17
2022-12-28T17:16:07.207Z,7.23
2022-12-28T17:17:07.275Z,7.12
2022-12-28T17:18:07.223Z,7.12
2022-12-28T17:19:08.125Z,7.04
2022-12-28T17:20:08.134Z,7.05
2022-12-28T17:21:14.730Z,7.15
2022-12-28T17:22:15.735Z,7.20
2022-12-28T17:23:08.170Z,7.23
2022-12-28T17:24:08.170Z,7.24
2022-12-28T17:25:08.170Z,7.17
2022-12-28T17:26:08.159Z,7.15
2022-12-28T17:27:09.840Z,7.22
2022-12-28T17:28:08.180Z,7.15
2022-12-28T17:37:11.668Z,7.08
2022-12-28T17:38:11.705Z,7.12
2022-12-28T17:39:11.740Z,7.04
2022-12-28T17:40:12.292Z,7.01
2022-12-28T17:41:12.794Z,6.91
2022-12-28T17:42:11.894Z,6.89
2022-12-28T17:43:11.921Z,6.87
2022-12-28T17:44:11.919Z,6.86
2022-12-28T17:45:12.339Z,6.90
2022-12-28T17:46:12.835Z,6.87
2022-12-28T17:47:12.064Z,6.86
2022-12-28T17:48:12.132Z,6.94
2022-12-28T17:49:12.790Z,6.86
2022-12-28T17:50:12.237Z,6.97
2022-12-28T17:51:12.251Z,6.97
2022-12-28T17:52:12.259Z,6.95
2022-12-28T17:53:12.298Z,7.04
2022-12-28T17:54:12.343Z,7.04
2022-12-28T17:55:12.408Z,7.16
2022-12-28T17:56:13.286Z,7.16
2022-12-28T17:57:12.477Z,7.13
2022-12-28T17:58:12.529Z,7.24
2022-12-28T17:59:12.578Z,7.16
2022-12-28T18:00:12.625Z,7.19
2022-12-28T18:01:12.748Z,7.23
2022-12-28T18:02:12.991Z,7.26
2022-12-28T18:03:13.309Z,7.29
2022-12-28T18:04:13.294Z,7.27
2022-12-28T18:05:12.812Z,7.32
2022-12-28T18:06:13.778Z,7.34
2022-12-28T18:07:12.982Z,7.41
2022-12-28T18:08:12.938Z,7.41
2022-12-28T18:09:12.989Z,7.44
2022-12-28T18:10:13.044Z,7.41
2022-12-28T18:11:13.071Z,7.49
2022-12-28T18:12:13.156Z,7.45
2022-12-28T18:13:13.159Z,7.45